Weather History for Burlington, WA

Change the Weather History Date:

Saturday, March 2, 2013

  Actual Average Record
Temperature  
Mean Temperature 48 °F -  
Max Temperature 55 °F 50 °F 61 °F (1992)
Min Temperature 41 °F 35 °F 22 °F (1989)
Degree Days  
Heating Degree Days 17    
Moisture  
Dew Point 47 °F    
Average Humidity 91    
Maximum Humidity 100    
Minimum Humidity 82    
Precipitation  
Precipitation 0.02 in - - ()
Sea Level Pressure  
Sea Level Pressure 30.14 in    
Wind  
Wind Speed 11 mph (South)    
Max Wind Speed 17 mph    
Max Gust Speed 29 mph    
Visibility 9 miles    
Events      
Averages and records for this station are not official NWS values.
T = Trace of Precipitation, MM = Missing Value Source: NWS Daily Summary

Daily Weather History Graph

Daily Weather History Graph

Search for Another Location

Airport:

Trip Planner

Search our weather history database for the weather conditions in past years. The results will help you decide how hot, cold, wet, or windy it might be!

Date:

Astronomy

Mar. 02, 2013 Rise Set
Actual Time 6:48 AM PST 5:55 PM PST
Civil Twilight 6:17 AM PST 6:27 PM PST
Nautical Twilight 5:40 AM PST 7:03 PM PST
Astronomical Twilight 5:04 AM PST 7:39 PM PST
Moon No Moon Rise 8:52 AM PST (3/2)
Length of Visible Light 12h 10m
Length of Day
11h 07m
Waning Gibbous, 73% of the Moon is Illuminated
Mar 2
Waning Gibbous
Mar 4
Last Quarter
Mar 11
New
Mar 19
First Quarter
Mar 27
Full

Hourly Weather History & Observations

Time (PST) Temp. Windchill Dew Point Humidity Pressure Visibility Wind Dir Wind Speed Gust Speed Precip Events Conditions
12:15 AM 55.4 °F - 51.8 °F 88% 30.24 in 10.0 mi SSE 10.4 mph - 0.00 in   Overcast
12:35 AM 55.4 °F - 51.8 °F 88% 30.24 in 10.0 mi SSE 10.4 mph 16.1 mph 0.00 in   Overcast
12:55 AM 55.4 °F - 53.6 °F 94% 30.24 in 10.0 mi SSE 10.4 mph - 0.00 in   Overcast
1:15 AM 55.4 °F - 51.8 °F 88% 30.24 in 10.0 mi SSE 16.1 mph 23.0 mph 0.00 in   Overcast
1:35 AM 55.4 °F - 51.8 °F 88% 30.23 in 10.0 mi SSE 13.8 mph 20.7 mph 0.00 in   Overcast
1:55 AM 55.4 °F - 51.8 °F 88% 30.24 in 10.0 mi SSE 15.0 mph 21.9 mph 0.00 in   Overcast
2:15 AM 55.4 °F - 51.8 °F 88% 30.23 in 10.0 mi SSE 12.7 mph 17.3 mph 0.00 in   Overcast
2:35 AM 55.4 °F - 51.8 °F 88% 30.22 in 10.0 mi SSE 9.2 mph 18.4 mph 0.00 in   Overcast
2:55 AM 55.4 °F - 51.8 °F 88% 30.21 in 10.0 mi SSE 12.7 mph 20.7 mph 0.00 in   Overcast
3:15 AM 53.6 °F - 51.8 °F 94% 30.20 in 10.0 mi SSE 13.8 mph 20.7 mph 0.00 in   Overcast
3:35 AM 53.6 °F - 51.8 °F 94% 30.19 in 10.0 mi SSE 11.5 mph 20.7 mph 0.00 in   Overcast
3:55 AM 53.6 °F - 51.8 °F 94% 30.18 in 10.0 mi SSE 12.7 mph 19.6 mph 0.00 in   Overcast
4:15 AM 53.6 °F - 51.8 °F 94% 30.17 in 10.0 mi SSE 12.7 mph 19.6 mph 0.00 in   Overcast
4:35 AM 53.6 °F - 51.8 °F 94% 30.18 in 10.0 mi SSE 12.7 mph 19.6 mph 0.00 in   Overcast
4:55 AM 53.6 °F - 51.8 °F 94% 30.18 in 10.0 mi SSE 10.4 mph 17.3 mph 0.00 in   Overcast
5:15 AM 53.6 °F - 51.8 °F 94% 30.17 in 10.0 mi SE 13.8 mph 19.6 mph 0.00 in   Overcast
5:35 AM 53.6 °F - 51.8 °F 94% 30.17 in 10.0 mi SSE 11.5 mph 20.7 mph 0.00 in   Overcast
5:55 AM 53.6 °F - 51.8 °F 94% 30.16 in 10.0 mi SE 12.7 mph 17.3 mph 0.00 in   Overcast
6:15 AM 53.6 °F - 51.8 °F 94% 30.16 in 10.0 mi SSE 9.2 mph 17.3 mph 0.00 in   Overcast
6:35 AM 53.6 °F - 51.8 °F 94% 30.14 in 10.0 mi SE 11.5 mph 17.3 mph 0.00 in   Overcast
6:55 AM 53.6 °F - 51.8 °F 94% 30.15 in 10.0 mi SSE 9.2 mph 18.4 mph 0.00 in   Overcast
7:15 AM 53.6 °F - 50.0 °F 88% 30.14 in 10.0 mi SSE 10.4 mph 20.7 mph 0.00 in   Overcast
7:35 AM 53.6 °F - 50.0 °F 88% 30.13 in 10.0 mi SE 11.5 mph 16.1 mph 0.00 in   Overcast
7:55 AM 53.6 °F - 50.0 °F 88% 30.13 in 10.0 mi SE 10.4 mph 17.3 mph 0.00 in   Overcast
8:15 AM 53.6 °F - 50.0 °F 88% 30.13 in 10.0 mi SE 12.7 mph 17.3 mph 0.00 in   Overcast
8:35 AM 53.6 °F - 50.0 °F 88% 30.12 in 10.0 mi SE 8.1 mph 16.1 mph 0.00 in   Overcast
8:55 AM 53.6 °F - 50.0 °F 88% 30.12 in 10.0 mi SE 9.2 mph - 0.00 in   Overcast
9:15 AM 53.6 °F - 50.0 °F 88% 30.11 in 10.0 mi SSE 15.0 mph 25.3 mph 0.00 in   Overcast
9:35 AM 55.4 °F - 50.0 °F 82% 30.11 in 10.0 mi SE 16.1 mph 21.9 mph 0.00 in   Overcast
9:55 AM 55.4 °F - 50.0 °F 82% 30.10 in 10.0 mi SE 13.8 mph 20.7 mph 0.00 in   Overcast
10:35 AM 55.4 °F - 50.0 °F 82% 30.08 in 10.0 mi SE 15.0 mph 24.2 mph 0.00 in   Overcast
10:55 AM 55.4 °F - 50.0 °F 82% 30.07 in 10.0 mi SE 15.0 mph 26.5 mph 0.00 in   Overcast
11:15 AM 55.4 °F - 50.0 °F 82% 30.07 in 10.0 mi SSE 12.7 mph 25.3 mph 0.00 in   Mostly Cloudy
11:35 AM 55.4 °F - 50.0 °F 82% 30.07 in 10.0 mi SSE 17.3 mph 28.8 mph 0.00 in   Overcast
11:55 AM 55.4 °F - 50.0 °F 82% 30.07 in 10.0 mi SSE 17.3 mph 24.2 mph 0.00 in   Overcast
12:15 PM 55.4 °F - 50.0 °F 82% 30.06 in 10.0 mi SSE 17.3 mph 25.3 mph 0.00 in   Overcast
12:35 PM 55.4 °F - 50.0 °F 82% 30.05 in 10.0 mi SSE 16.1 mph 27.6 mph 0.00 in   Overcast
12:55 PM 55.4 °F - 50.0 °F 82% 30.04 in 10.0 mi SSE 17.3 mph 25.3 mph 0.00 in   Overcast
1:15 PM 55.4 °F - 50.0 °F 82% 30.03 in 10.0 mi SSE 15.0 mph 26.5 mph 0.00 in   Overcast
1:55 PM 46.4 °F 40.4 °F 46.4 °F 100% 30.06 in 5.0 mi SSW 13.8 mph 23.0 mph 0.00 in   Overcast
2:15 PM 44.6 °F 37.4 °F 44.6 °F 100% 30.07 in 5.0 mi SW 16.1 mph 23.0 mph 0.00 in   Overcast
2:35 PM 44.6 °F 39.7 °F 44.6 °F 100% 30.07 in 4.0 mi WSW 9.2 mph 17.3 mph 0.00 in   Overcast
2:55 PM 44.6 °F 39.7 °F 44.6 °F 100% 30.08 in 3.0 mi West 9.2 mph - 0.00 in   Overcast
3:15 PM 44.6 °F 40.7 °F 44.6 °F 100% 30.09 in 4.0 mi SW 6.9 mph - 0.00 in   Overcast
3:35 PM 44.6 °F 41.4 °F 44.6 °F 100% 30.10 in 5.0 mi WSW 5.8 mph - 0.01 in   Overcast
3:55 PM 44.6 °F 40.7 °F 44.6 °F 100% 30.11 in 5.0 mi SW 6.9 mph - 0.01 in   Overcast
4:15 PM 42.8 °F 38.0 °F 42.8 °F 100% 30.11 in 5.0 mi SW 8.1 mph - 0.00 in   Overcast
4:35 PM 42.8 °F 38.0 °F 42.8 °F 100% 30.11 in 9.0 mi SW 8.1 mph - 0.01 in   Overcast
4:55 PM 42.8 °F 38.6 °F 42.8 °F 100% 30.11 in 10.0 mi SW 6.9 mph - 0.01 in   Overcast
5:15 PM 42.8 °F 39.3 °F 42.8 °F 100% 30.11 in 10.0 mi WSW 5.8 mph - 0.00 in   Overcast
5:35 PM 44.6 °F 39.2 °F 44.6 °F 100% 30.11 in 10.0 mi SW 10.4 mph - 0.00 in   Mostly Cloudy
5:55 PM 44.6 °F 42.2 °F 44.6 °F 100% 30.12 in 10.0 mi West 4.6 mph - 0.00 in   Scattered Clouds
6:15 PM 44.6 °F 40.2 °F 44.6 °F 100% 30.12 in 10.0 mi WSW 8.1 mph - 0.00 in   Partly Cloudy
6:35 PM 44.6 °F 39.2 °F 42.8 °F 93% 30.13 in 10.0 mi SW 10.4 mph 16.1 mph 0.00 in   Mostly Cloudy
6:55 PM 44.6 °F 39.2 °F 42.8 °F 93% 30.13 in 10.0 mi WSW 10.4 mph 19.6 mph 0.00 in   Mostly Cloudy
7:15 PM 42.8 °F 38.0 °F 42.8 °F 100% 30.14 in 10.0 mi SW 8.1 mph - 0.00 in   Partly Cloudy
7:35 PM 42.8 °F 38.6 °F 42.8 °F 100% 30.14 in 10.0 mi West 6.9 mph - 0.00 in   Clear
7:55 PM 42.8 °F 39.3 °F 39.2 °F 87% 30.15 in 10.0 mi West 5.8 mph - 0.00 in   Mostly Cloudy
8:15 PM 42.8 °F 40.1 °F 39.2 °F 87% 30.15 in 10.0 mi West 4.6 mph - 0.00 in   Mostly Cloudy
8:35 PM 42.8 °F 38.0 °F 39.2 °F 87% 30.16 in 10.0 mi SW 8.1 mph - 0.00 in   Partly Cloudy
9:15 PM 42.8 °F 37.5 °F 39.2 °F 87% 30.16 in 10.0 mi West 9.2 mph 20.7 mph 0.00 in   Clear
9:35 PM 42.8 °F 37.5 °F 39.2 °F 87% 30.17 in 10.0 mi West 9.2 mph - 0.00 in   Scattered Clouds
10:15 PM 42.8 °F 38.6 °F 41.0 °F 93% 30.18 in 10.0 mi WSW 6.9 mph - 0.00 in   Scattered Clouds
10:35 PM 42.8 °F 40.1 °F 39.2 °F 87% 30.18 in 10.0 mi West 4.6 mph - 0.00 in   Partly Cloudy
10:55 PM 42.8 °F 39.3 °F 39.2 °F 87% 30.18 in 10.0 mi West 5.8 mph - 0.00 in   Scattered Clouds
11:35 PM 41.0 °F 36.4 °F 39.2 °F 93% 30.18 in 10.0 mi SW 6.9 mph - 0.00 in   Clear
11:55 PM 41.0 °F 36.4 °F 39.2 °F 93% 30.18 in 10.0 mi WSW 6.9 mph - 0.00 in   Clear